Airfield :
LOGIN :

Register | Disclaimer

   EN    FR    IT 

 










Legend :    VFR   Marginal VFR   IFR   Intensive IFR   Very Intensive IFR
Visi :
Ceiling :
>= 8 km
>= 3000ft
5 to 8 km
1000 to 3000 ft
1500m to 5 km
500 to 1000 ft
800 to 1500m
200 to 500 ft
< 800m
< 200 ft
Symbols :   Thunderstorms  Fog  Heavy snow  Heavy precipitations  Wind > 20 kt
SIGMETs :     Misc.  Thunderstorms  Icing  Turbulence  Mountain Waves  Volcanic Ashes







- Airport Elevation : 1416 ft
- IATA code : ZRH


LSZH - Zurich

CURRENT METAR :
  • 191250Z 28010KT 230V310 9999 FEW030 06/M01 Q1013 TEMPO SHRA

EXPIRED METARs :
  • 191220Z 26009KT 9999 FEW030 SCT100 06/M01 Q1013 TEMPO SHRA
  • 191150Z 28009KT 9999 FEW030 SCT120 05/M01 Q1014 NOSIG
  • 191120Z 27011KT 220V290 9999 FEW025 SCT120 05/M00 Q1014 NOSIG
  • 191050Z 28012KT 9999 FEW020 SCT045 05/M00 Q1014 NOSIG
  • 191020Z 29014KT 9999 VCSH FEW015 04/01 Q1014 NOSIG

TAF TAF LSZH
Valid from the 19 at 12:00 until the 20 at 18:00 UTC


191125Z 1912/2018 27010KT 9999 FEW025 SCT120 TX06/1914Z TN01/2006Z TX04/2014Z
PROB40
TEMPO 1915/1921 2500 SHSNRA SCT009TCU BKN014
PROB40
TEMPO 1921/2009 1500 SHSN BKN005
ATIS : +41 43 816 2295 (DEP) +41 43 816 2294 (ARR)
No reported NOTAMs for that airfield.



MET'MAP, your aeronautical weather chart ! - Copyright ORBIFLY December 2007 - Disclaimer

ORBIFLY MET'MAP TEAM :

Programming & Development : Alexandra Zaïnal
Concept & Development : Baudouin d'Aumeries
Co-Development & Prog : Marc-Olivier Méhu
Technical & hardware support : Manuel Goepfert

Contact : metmap@orbifly.com




SOURCES & CREDITS :

   NOAA